createdAt,value
2023-02-14T00:02:23.880Z,9.53
2023-02-14T00:04:52.496Z,10.13
2023-02-14T00:07:21.262Z,9.00
2023-02-14T00:09:49.726Z,9.40
2023-02-14T00:12:18.501Z,10.37
2023-02-14T00:15:04.494Z,9.03
2023-02-14T00:17:34.669Z,9.43
2023-02-14T00:20:03.190Z,9.33
2023-02-14T00:22:31.919Z,8.67
2023-02-14T00:25:00.423Z,9.47
2023-02-14T00:27:29.240Z,11.00
2023-02-14T00:30:01.923Z,9.67
2023-02-14T00:32:32.079Z,8.97
2023-02-14T00:35:02.015Z,7.97
2023-02-14T00:37:30.722Z,10.27
2023-02-14T00:39:59.242Z,9.40
2023-02-14T00:42:27.988Z,9.47
2023-02-14T00:44:56.446Z,8.67
2023-02-14T00:47:25.179Z,10.87
2023-02-14T00:49:53.804Z,8.77
2023-02-14T00:52:24.156Z,9.37
2023-02-14T00:54:52.598Z,10.17
2023-02-14T00:57:21.355Z,10.40
2023-02-14T00:59:49.891Z,10.40
2023-02-14T01:02:18.771Z,10.33
2023-02-14T01:04:47.322Z,10.03
2023-02-14T01:07:16.230Z,10.90
2023-02-14T01:09:46.054Z,10.47
2023-02-14T01:12:14.798Z,10.10
2023-02-14T01:14:44.137Z,11.23
2023-02-14T01:17:12.938Z,10.53
2023-02-14T01:19:42.493Z,11.43
2023-02-14T01:22:11.627Z,9.73
2023-02-14T01:24:40.102Z,10.33
2023-02-14T01:27:10.336Z,9.57
2023-02-14T01:29:38.921Z,9.77
2023-02-14T01:32:07.825Z,9.97
2023-02-14T01:34:36.438Z,9.87
2023-02-14T01:37:05.391Z,10.03
2023-02-14T01:39:33.846Z,10.17
2023-02-14T01:42:02.573Z,10.03
2023-02-14T01:44:59.899Z,9.03
2023-02-14T01:47:32.071Z,10.07
2023-02-14T01:50:03.863Z,10.00
2023-02-14T01:52:37.610Z,11.10
2023-02-14T01:55:09.709Z,9.67
2023-02-14T01:57:45.114Z,9.73
2023-02-14T02:00:35.161Z,9.30
2023-02-14T02:03:06.430Z,9.27
2023-02-14T02:05:35.435Z,9.90
2023-02-14T02:08:04.684Z,9.53
2023-02-14T02:10:33.124Z,8.77
2023-02-14T02:13:06.032Z,10.70
2023-02-14T02:15:43.447Z,10.20
2023-02-14T02:18:16.769Z,10.10
2023-02-14T02:21:39.514Z,10.00
2023-02-14T02:24:20.426Z,10.20
2023-02-14T02:27:22.382Z,9.30
2023-02-14T02:30:27.506Z,9.07
2023-02-14T02:33:46.618Z,9.97
2023-02-14T02:36:38.301Z,10.33
2023-02-14T02:39:17.484Z,9.63
2023-02-14T02:41:55.930Z,9.50
2023-02-14T02:44:36.006Z,9.60
2023-02-14T02:47:08.990Z,9.13
2023-02-14T02:50:03.411Z,8.80
2023-02-14T02:53:01.290Z,9.03
2023-02-14T02:55:51.963Z,7.80
2023-02-14T02:58:24.549Z,8.20
2023-02-14T03:00:55.690Z,9.43
2023-02-14T03:03:44.652Z,9.57
2023-02-14T03:06:13.124Z,10.27
2023-02-14T03:08:43.259Z,8.57
2023-02-14T03:11:14.258Z,9.17
2023-02-14T03:14:09.398Z,8.43
2023-02-14T03:16:50.232Z,8.83
2023-02-14T03:19:55.490Z,9.33
2023-02-14T03:22:35.701Z,8.87
2023-02-14T03:25:18.844Z,10.17
2023-02-14T03:27:51.030Z,8.63
2023-02-14T03:30:29.227Z,9.03
2023-02-14T03:33:02.566Z,8.00
2023-02-14T03:35:37.805Z,9.53
2023-02-14T03:38:10.374Z,8.17
2023-02-14T03:40:43.764Z,8.73
2023-02-14T03:43:20.297Z,8.33
2023-02-14T03:45:53.768Z,8.83
2023-02-14T03:48:25.151Z,9.20
2023-02-14T03:50:54.916Z,8.93
2023-02-14T03:53:27.811Z,8.67
2023-02-14T03:56:04.569Z,8.17
2023-02-14T03:58:36.270Z,9.37
2023-02-14T04:01:09.588Z,9.27
2023-02-14T04:03:41.669Z,8.17
2023-02-14T04:06:11.218Z,8.63
2023-02-14T04:08:39.691Z,8.83
2023-02-14T04:11:09.863Z,9.13
2023-02-14T04:13:39.145Z,8.67
2023-02-14T04:16:08.840Z,9.47
2023-02-14T04:18:54.738Z,9.73
2023-02-14T04:21:23.622Z,8.83
2023-02-14T04:23:52.164Z,9.10
2023-02-14T04:26:22.346Z,8.83
2023-02-14T04:28:50.805Z,8.67
2023-02-14T04:31:19.756Z,8.40
2023-02-14T04:33:48.259Z,8.53
2023-02-14T04:36:16.944Z,9.63
2023-02-14T04:38:45.450Z,9.87
2023-02-14T04:41:14.263Z,9.27
2023-02-14T04:43:44.105Z,8.30
2023-02-14T04:46:13.260Z,8.23
2023-02-14T04:48:41.812Z,9.53
2023-02-14T04:51:10.604Z,9.67
2023-02-14T04:53:40.366Z,8.93
2023-02-14T04:56:09.866Z,9.40
2023-02-14T04:58:38.358Z,8.43
2023-02-14T05:01:08.645Z,9.73
2023-02-14T05:03:37.100Z,8.40
2023-02-14T05:06:06.180Z,10.23
2023-02-14T05:08:34.728Z,10.03
2023-02-14T05:11:03.603Z,9.33
2023-02-14T05:13:32.997Z,9.80
2023-02-14T05:16:02.487Z,10.20
2023-02-14T05:18:32.403Z,9.90
2023-02-14T05:21:01.478Z,9.67
2023-02-14T05:23:30.414Z,8.77
2023-02-14T05:25:59.133Z,9.43
2023-02-14T05:28:27.785Z,8.27
2023-02-14T05:30:56.996Z,9.33
2023-02-14T05:33:25.662Z,9.27
2023-02-14T05:35:55.790Z,9.17
2023-02-14T05:38:24.234Z,9.07
2023-02-14T05:40:52.947Z,9.20
2023-02-14T05:43:21.568Z,9.03
2023-02-14T05:45:50.474Z,8.93
2023-02-14T05:48:19.121Z,7.97
2023-02-14T05:50:47.994Z,9.60
2023-02-14T05:53:17.967Z,8.23
2023-02-14T05:55:46.899Z,9.80
2023-02-14T05:58:15.468Z,9.93
2023-02-14T06:00:44.434Z,9.60
2023-02-14T06:03:12.906Z,8.97
2023-02-14T06:05:42.660Z,10.10
2023-02-14T06:08:11.293Z,9.70
2023-02-14T06:10:41.621Z,10.03
2023-02-14T06:13:10.721Z,10.03
2023-02-14T06:15:39.869Z,9.13
2023-02-14T06:18:08.695Z,8.60
2023-02-14T06:20:37.444Z,10.00
2023-02-14T06:23:05.878Z,8.97
2023-02-14T06:25:34.890Z,10.13
2023-02-14T06:28:04.789Z,8.93
2023-02-14T06:30:33.874Z,9.10
2023-02-14T06:33:02.441Z,8.77
2023-02-14T06:35:31.575Z,11.30
2023-02-14T06:38:00.050Z,10.07
2023-02-14T06:40:28.893Z,10.10
2023-02-14T06:42:57.345Z,10.87
2023-02-14T06:45:27.526Z,9.63
2023-02-14T06:47:56.045Z,10.67
2023-02-14T06:50:25.013Z,10.60
2023-02-14T06:52:53.520Z,10.80
2023-02-14T06:55:22.546Z,13.63
2023-02-14T06:57:50.983Z,9.70
2023-02-14T07:00:21.177Z,9.73
2023-02-14T07:02:51.236Z,10.07
2023-02-14T07:05:20.246Z,10.33
2023-02-14T07:07:49.184Z,10.03
2023-02-14T07:10:18.284Z,9.57
2023-02-14T07:12:46.735Z,8.70
2023-02-14T07:15:16.518Z,11.30
2023-02-14T07:17:45.316Z,9.43
2023-02-14T07:20:16.181Z,9.13
2023-02-14T07:22:45.113Z,9.60
2023-02-14T07:25:14.569Z,9.87
2023-02-14T07:27:43.100Z,9.93
2023-02-14T07:30:13.422Z,8.33
2023-02-14T07:32:42.503Z,9.87
2023-02-14T07:35:12.028Z,11.00
2023-02-14T07:37:42.396Z,10.53
2023-02-14T07:40:14.937Z,10.23
2023-02-14T07:42:44.352Z,10.50
2023-02-14T07:45:21.620Z,9.60
2023-02-14T07:47:51.604Z,9.93
2023-02-14T07:50:21.380Z,10.17
2023-02-14T07:52:51.584Z,9.10
2023-02-14T07:55:20.416Z,9.53
2023-02-14T07:57:49.422Z,9.70
2023-02-14T08:00:19.185Z,9.43
2023-02-14T08:02:47.735Z,10.70
2023-02-14T08:05:17.005Z,9.07
2023-02-14T08:07:47.354Z,9.67
2023-02-14T08:10:17.917Z,9.73
2023-02-14T08:13:01.539Z,8.17
2023-02-14T08:15:49.565Z,10.93
2023-02-14T08:18:18.955Z,9.83
2023-02-14T08:20:49.756Z,8.40
2023-02-14T08:23:19.227Z,9.30
2023-02-14T08:25:50.324Z,9.80
2023-02-14T08:28:20.744Z,7.07
2023-02-14T08:30:49.670Z,6.80
2023-02-14T08:33:18.590Z,6.87
2023-02-14T08:35:47.488Z,6.37
2023-02-14T08:38:16.093Z,7.93
2023-02-14T08:40:45.175Z,7.13
2023-02-14T08:43:15.353Z,8.07
2023-02-14T08:45:44.613Z,9.10
2023-02-14T08:48:14.117Z,7.73
2023-02-14T08:50:42.926Z,9.10
2023-02-14T08:53:13.286Z,8.10
2023-02-14T08:55:42.189Z,9.07
2023-02-14T08:58:10.710Z,8.27
2023-02-14T09:00:41.622Z,6.80
2023-02-14T09:03:10.651Z,6.17
2023-02-14T09:05:40.318Z,7.50
2023-02-14T09:08:08.907Z,8.27
2023-02-14T09:10:38.213Z,7.37
2023-02-14T09:13:07.334Z,7.00
2023-02-14T09:15:36.241Z,7.57
2023-02-14T09:18:06.336Z,8.30
2023-02-14T09:20:35.516Z,6.70
2023-02-14T09:23:03.986Z,7.43
2023-02-14T09:25:33.233Z,6.67
2023-02-14T09:28:01.784Z,6.57
2023-02-14T09:30:30.855Z,6.63
2023-02-14T09:33:00.292Z,7.97
2023-02-14T09:35:30.451Z,7.60
2023-02-14T09:38:16.429Z,6.50
2023-02-14T09:40:45.409Z,7.53
2023-02-14T09:43:19.607Z,6.33
2023-02-14T09:45:54.128Z,7.67
2023-02-14T09:48:28.428Z,7.00
2023-02-14T09:51:03.398Z,6.77
2023-02-14T09:53:35.239Z,7.30
2023-02-14T09:56:13.152Z,7.43
2023-02-14T09:58:48.401Z,5.73
2023-02-14T10:01:23.275Z,3.97
2023-02-14T10:04:16.664Z,5.63
2023-02-14T10:06:55.256Z,5.63
2023-02-14T10:09:47.112Z,5.20
2023-02-14T10:12:23.044Z,4.50
2023-02-14T10:14:53.780Z,4.13
2023-02-14T10:17:29.509Z,3.17
2023-02-14T10:20:01.033Z,3.50
2023-02-14T10:22:39.874Z,5.43
2023-02-14T10:25:17.070Z,4.03
2023-02-14T10:27:47.963Z,4.60
2023-02-14T10:30:18.763Z,4.60
2023-02-14T10:32:49.714Z,3.77
2023-02-14T10:35:29.370Z,3.93
2023-02-14T10:38:11.399Z,3.53
2023-02-14T10:40:50.681Z,4.77
2023-02-14T10:43:29.659Z,3.63
2023-02-14T10:46:08.163Z,3.87
2023-02-14T10:48:45.866Z,4.10
2023-02-14T10:51:20.392Z,3.80
2023-02-14T10:54:00.510Z,3.63
2023-02-14T10:56:35.419Z,4.43
2023-02-14T10:59:21.939Z,4.40
2023-02-14T11:01:52.285Z,4.87
2023-02-14T11:04:22.846Z,4.17
2023-02-14T11:06:51.655Z,4.57
2023-02-14T11:09:22.524Z,3.93
2023-02-14T11:11:54.385Z,3.63
2023-02-14T11:14:28.193Z,3.90
2023-02-14T11:16:58.825Z,4.30
2023-02-14T11:19:30.247Z,3.53
2023-02-14T11:22:00.391Z,3.83
2023-02-14T11:24:33.657Z,3.83
2023-02-14T11:27:05.251Z,3.73
2023-02-14T11:29:37.509Z,3.20
2023-02-14T11:32:11.555Z,3.70
2023-02-14T11:34:42.363Z,4.07
2023-02-14T11:37:26.933Z,2.70
2023-02-14T11:39:59.496Z,4.17
2023-02-14T11:42:41.438Z,4.20
2023-02-14T11:45:32.010Z,3.60
2023-02-14T11:48:11.205Z,11.53
2023-02-14T11:50:42.060Z,3.93
2023-02-14T11:53:14.191Z,3.87
2023-02-14T11:55:47.061Z,4.03
2023-02-14T11:58:42.922Z,4.77
2023-02-14T12:01:22.210Z,4.43
2023-02-14T12:03:52.138Z,4.23
2023-02-14T12:06:26.296Z,4.10
2023-02-14T12:09:12.772Z,3.00
2023-02-14T12:11:55.024Z,4.77
2023-02-14T12:14:29.489Z,4.53
2023-02-14T12:17:04.037Z,4.70
2023-02-14T12:19:40.629Z,4.57
2023-02-14T12:22:15.917Z,7.87
2023-02-14T12:24:54.890Z,4.80
2023-02-14T12:27:30.869Z,5.10
2023-02-14T12:30:07.218Z,5.67
2023-02-14T12:32:36.517Z,4.30
2023-02-14T12:35:15.199Z,5.60
2023-02-14T12:38:04.357Z,7.07
2023-02-14T12:40:44.573Z,5.43
2023-02-14T12:43:55.339Z,5.83
2023-02-14T12:46:47.927Z,5.20
2023-02-14T12:49:52.429Z,6.37
2023-02-14T12:52:39.381Z,4.70
2023-02-14T12:55:29.566Z,4.77
2023-02-14T12:58:03.853Z,5.73
2023-02-14T13:00:44.967Z,5.27
2023-02-14T13:03:47.644Z,5.50
2023-02-14T13:06:23.379Z,4.80
2023-02-14T13:09:07.040Z,6.43
2023-02-14T13:11:41.066Z,6.20
2023-02-14T13:14:22.542Z,7.03
2023-02-14T13:16:57.146Z,5.93
2023-02-14T13:19:36.755Z,7.37
2023-02-14T13:22:08.448Z,6.37
2023-02-14T13:24:42.038Z,6.73
2023-02-14T13:27:20.824Z,6.10
2023-02-14T13:29:54.830Z,5.50
2023-02-14T13:32:30.204Z,6.43
2023-02-14T13:34:59.753Z,6.13
2023-02-14T13:37:30.605Z,5.90
2023-02-14T13:40:01.650Z,4.90
2023-02-14T13:42:52.173Z,6.30
2023-02-14T13:45:51.934Z,5.10
2023-02-14T13:48:24.927Z,6.07
2023-02-14T13:50:56.763Z,4.97
2023-02-14T13:53:35.972Z,6.07
2023-02-14T13:56:07.258Z,5.77
2023-02-14T13:58:36.603Z,5.50
2023-02-14T14:01:36.214Z,5.23
2023-02-14T14:04:30.372Z,5.93
2023-02-14T14:07:19.255Z,5.77
2023-02-14T14:09:56.364Z,6.07
2023-02-14T14:12:44.053Z,5.87
2023-02-14T14:15:20.606Z,6.00
2023-02-14T14:18:05.774Z,5.33
2023-02-14T14:20:48.970Z,5.07
2023-02-14T14:23:38.579Z,5.77
2023-02-14T14:26:35.177Z,6.00
2023-02-14T14:29:12.344Z,6.33
2023-02-14T14:31:42.662Z,4.43
2023-02-14T14:34:18.369Z,5.60
2023-02-14T14:36:49.116Z,5.37
2023-02-14T14:39:29.240Z,6.30
2023-02-14T14:42:06.990Z,6.20
2023-02-14T14:44:37.311Z,6.63
2023-02-14T14:47:06.538Z,6.77
2023-02-14T14:49:35.097Z,6.47
2023-02-14T14:52:07.085Z,6.47
2023-02-14T14:54:36.839Z,6.00
2023-02-14T14:57:06.969Z,5.77
2023-02-14T14:59:38.098Z,5.50
2023-02-14T15:02:23.092Z,5.50
2023-02-14T15:04:51.702Z,5.90
2023-02-14T15:07:30.176Z,5.70
2023-02-14T15:09:58.700Z,5.73
2023-02-14T15:12:45.228Z,5.83
2023-02-14T15:15:16.826Z,5.80
2023-02-14T15:17:47.221Z,4.73
2023-02-14T15:20:19.308Z,6.37
2023-02-14T15:22:51.928Z,6.13
2023-02-14T15:25:22.220Z,7.43
2023-02-14T15:27:51.562Z,8.40
2023-02-14T15:30:26.514Z,7.27
2023-02-14T15:32:55.914Z,7.57
2023-02-14T15:35:26.563Z,7.73
2023-02-14T15:38:01.440Z,7.00
2023-02-14T15:40:32.626Z,7.17
2023-02-14T15:43:15.024Z,7.70
2023-02-14T15:45:45.612Z,9.30
2023-02-14T15:48:18.056Z,7.53
2023-02-14T15:50:50.029Z,7.73
2023-02-14T15:53:36.241Z,7.87
2023-02-14T15:56:08.201Z,7.77
2023-02-14T15:58:38.658Z,8.00
2023-02-14T16:01:07.973Z,9.17
2023-02-14T16:03:40.960Z,8.77
2023-02-14T16:06:17.088Z,7.93
2023-02-14T16:08:55.806Z,9.40
2023-02-14T16:11:29.818Z,8.50
2023-02-14T16:13:58.727Z,8.27
2023-02-14T16:16:27.180Z,10.07
2023-02-14T16:18:56.894Z,10.90
2023-02-14T16:21:27.956Z,9.90
2023-02-14T16:24:14.136Z,9.70
2023-02-14T16:26:44.226Z,11.23
2023-02-14T16:29:14.833Z,12.23
2023-02-14T16:32:01.230Z,11.13
2023-02-14T16:34:35.868Z,14.80
2023-02-14T16:37:07.893Z,13.60
2023-02-14T16:39:40.795Z,13.37
2023-02-14T16:42:15.950Z,13.53
2023-02-14T16:44:45.298Z,13.47
2023-02-14T16:47:15.366Z,13.80
2023-02-14T16:49:44.230Z,14.13
2023-02-14T16:52:15.786Z,14.27
2023-02-14T16:54:46.136Z,14.67
2023-02-14T16:57:21.748Z,11.70
2023-02-14T16:59:51.021Z,11.53
2023-02-14T17:02:19.609Z,10.57
2023-02-14T17:04:48.555Z,10.43
2023-02-14T17:07:17.368Z,11.20
2023-02-14T17:09:51.292Z,11.90
2023-02-14T17:12:25.146Z,11.43
2023-02-14T17:14:57.495Z,11.73
2023-02-14T17:17:26.998Z,12.37
2023-02-14T17:19:55.968Z,14.97
2023-02-14T17:22:26.395Z,18.17
2023-02-14T17:24:57.230Z,22.07
2023-02-14T17:27:25.878Z,26.63
2023-02-14T17:29:54.696Z,18.83
2023-02-14T17:32:23.415Z,14.33
2023-02-14T17:34:52.290Z,15.43
2023-02-14T17:37:20.832Z,16.43
2023-02-14T17:39:49.800Z,16.67
2023-02-14T17:42:19.673Z,15.53
2023-02-14T17:44:48.457Z,16.67
2023-02-14T17:47:18.178Z,16.07
2023-02-14T17:49:48.239Z,18.57
2023-02-14T17:52:17.388Z,18.70
2023-02-14T17:54:46.466Z,17.63
2023-02-14T17:57:15.403Z,18.57
2023-02-14T17:59:46.864Z,19.43
2023-02-14T18:02:15.378Z,19.93
2023-02-14T18:04:44.122Z,21.07
2023-02-14T18:07:12.649Z,21.13
2023-02-14T18:09:41.380Z,23.17
2023-02-14T18:12:14.827Z,29.43
2023-02-14T18:14:45.813Z,29.50
2023-02-14T18:17:14.689Z,33.10
2023-02-14T18:19:43.756Z,32.27
2023-02-14T18:22:12.283Z,35.37
2023-02-14T18:24:41.625Z,37.00
2023-02-14T18:27:10.178Z,38.77
2023-02-14T18:29:39.400Z,37.60
2023-02-14T18:32:09.293Z,38.53
2023-02-14T18:34:38.475Z,41.43
2023-02-14T18:37:07.215Z,38.83
2023-02-14T18:39:36.241Z,38.27
2023-02-14T18:42:05.401Z,38.90
2023-02-14T18:44:34.297Z,36.90
2023-02-14T18:47:03.160Z,38.97
2023-02-14T18:49:33.478Z,38.33
2023-02-14T18:52:04.885Z,35.00
2023-02-14T18:54:33.730Z,36.90
2023-02-14T18:57:02.257Z,36.97
2023-02-14T18:59:31.022Z,36.47
2023-02-14T19:01:59.525Z,33.93
2023-02-14T19:04:28.994Z,30.03
2023-02-14T19:06:59.652Z,30.23
2023-02-14T19:09:29.450Z,30.43
2023-02-14T19:12:00.103Z,32.37
2023-02-14T19:14:28.951Z,32.30
2023-02-14T19:16:57.504Z,34.27
2023-02-14T19:19:26.332Z,32.47
2023-02-14T19:21:55.348Z,31.60
2023-02-14T19:24:25.649Z,30.50
2023-02-14T19:26:56.167Z,29.20
2023-02-14T19:29:25.318Z,27.63
2023-02-14T19:31:55.813Z,26.67
2023-02-14T19:34:29.224Z,27.93
2023-02-14T19:37:00.488Z,25.97
2023-02-14T19:39:31.607Z,27.10
2023-02-14T19:42:00.931Z,25.00
2023-02-14T19:44:31.158Z,28.60
2023-02-14T19:47:04.187Z,28.43
2023-02-14T19:49:35.978Z,27.37
2023-02-14T19:52:09.498Z,27.73
2023-02-14T19:54:44.387Z,27.63
2023-02-14T19:57:15.039Z,25.83
2023-02-14T19:59:44.046Z,29.20
2023-02-14T20:02:16.384Z,30.63
2023-02-14T20:04:45.617Z,33.37
2023-02-14T20:07:14.533Z,33.07
2023-02-14T20:09:47.128Z,33.80
2023-02-14T20:12:15.811Z,32.93
2023-02-14T20:14:51.300Z,34.33
2023-02-14T20:17:20.659Z,32.57
2023-02-14T20:19:50.718Z,32.50
2023-02-14T20:22:20.377Z,34.67
2023-02-14T20:24:50.995Z,34.87
2023-02-14T20:27:19.982Z,33.87
2023-02-14T20:29:49.010Z,36.10
2023-02-14T20:32:17.725Z,36.03
2023-02-14T20:34:46.833Z,36.73
2023-02-14T20:37:15.724Z,32.23
2023-02-14T20:39:44.786Z,33.60
2023-02-14T20:42:14.960Z,33.37
2023-02-14T20:44:45.286Z,33.50
2023-02-14T20:47:14.186Z,33.77
2023-02-14T20:49:44.785Z,35.07
2023-02-14T20:52:13.802Z,35.30
2023-02-14T20:54:42.682Z,34.33
2023-02-14T20:57:11.305Z,36.27
2023-02-14T20:59:44.741Z,35.60
2023-02-14T21:02:13.733Z,36.33
2023-02-14T21:04:42.944Z,36.37
2023-02-14T21:07:11.522Z,37.40
2023-02-14T21:09:40.367Z,38.93
2023-02-14T21:12:09.209Z,38.23
2023-02-14T21:14:38.137Z,37.90
2023-02-14T21:17:08.511Z,39.13
2023-02-14T21:19:37.283Z,38.17
2023-02-14T21:22:05.979Z,39.50
2023-02-14T21:24:34.925Z,42.80
2023-02-14T21:27:03.751Z,45.10
2023-02-14T21:29:33.744Z,42.13
2023-02-14T21:32:05.770Z,43.87
2023-02-14T21:34:36.574Z,45.53
2023-02-14T21:37:05.070Z,43.27
2023-02-14T21:39:35.795Z,45.20
2023-02-14T21:42:04.619Z,48.53
2023-02-14T21:44:47.298Z,49.33
2023-02-14T21:47:15.861Z,47.20
2023-02-14T21:50:03.658Z,48.43
2023-02-14T21:52:32.309Z,46.53
2023-02-14T21:55:01.065Z,49.47
2023-02-14T21:57:30.976Z,48.87
2023-02-14T21:59:59.755Z,49.40
2023-02-14T22:02:28.204Z,49.93
2023-02-14T22:04:58.363Z,50.23
2023-02-14T22:07:28.802Z,47.43
2023-02-14T22:09:57.636Z,49.63
2023-02-14T22:12:26.202Z,51.73
2023-02-14T22:14:54.990Z,48.10
2023-02-14T22:17:23.428Z,50.27
2023-02-14T22:19:52.161Z,47.93
2023-02-14T22:22:22.369Z,52.20
2023-02-14T22:24:51.127Z,51.33
2023-02-14T22:27:19.675Z,49.67
2023-02-14T22:29:48.449Z,47.10
2023-02-14T22:32:16.965Z,50.43
2023-02-14T22:34:45.959Z,49.17
2023-02-14T22:37:14.792Z,47.77
2023-02-14T22:39:45.057Z,47.80
2023-02-14T22:42:13.591Z,47.57
2023-02-14T22:44:42.583Z,52.33
2023-02-14T22:47:11.009Z,56.80
2023-02-14T22:49:39.707Z,53.23
2023-02-14T22:52:08.309Z,51.70
2023-02-14T22:54:37.053Z,49.80
2023-02-14T22:57:06.979Z,53.43
2023-02-14T22:59:35.985Z,48.90
2023-02-14T23:02:04.644Z,52.20
2023-02-14T23:04:33.691Z,50.07
2023-02-14T23:07:02.210Z,48.23
2023-02-14T23:09:31.107Z,50.03
2023-02-14T23:11:59.559Z,52.07
2023-02-14T23:14:47.133Z,50.30
2023-02-14T23:17:34.499Z,48.50
2023-02-14T23:20:20.761Z,52.90
2023-02-14T23:22:49.200Z,53.93
2023-02-14T23:25:18.116Z,58.10
2023-02-14T23:27:48.339Z,49.37
2023-02-14T23:30:19.606Z,50.43
2023-02-14T23:32:48.296Z,49.63
2023-02-14T23:35:17.427Z,48.37
2023-02-14T23:37:45.894Z,50.37
2023-02-14T23:40:14.923Z,49.57
2023-02-14T23:42:43.439Z,52.20
2023-02-14T23:45:29.526Z,50.40
2023-02-14T23:48:03.043Z,52.80
2023-02-14T23:50:31.893Z,49.37
2023-02-14T23:53:00.449Z,49.33
2023-02-14T23:55:29.171Z,49.00
2023-02-14T23:57:57.629Z,46.60
